sensor_id;sensor_type;location;lat;lon;timestamp;P1;durP1;ratioP1;P2;durP2;ratioP2
78985;SDS011;68384;55.750;48.746;2023-04-10T00:00:02;11.63;;;7.20;;
78985;SDS011;68384;55.750;48.746;2023-04-10T00:01:07;14.20;;;7.68;;
78985;SDS011;68384;55.750;48.746;2023-04-10T00:02:11;11.18;;;7.07;;
78985;SDS011;68384;55.750;48.746;2023-04-10T00:03:15;14.90;;;7.78;;
78985;SDS011;68384;55.750;48.746;2023-04-10T00:04:18;12.88;;;7.60;;
78985;SDS011;68384;55.750;48.746;2023-04-10T00:05:23;16.92;;;7.93;;
78985;SDS011;68384;55.750;48.746;2023-04-10T00:06:25;15.05;;;7.20;;
78985;SDS011;68384;55.750;48.746;2023-04-10T00:07:29;15.98;;;7.30;;
78985;SDS011;68384;55.750;48.746;2023-04-10T00:08:33;14.15;;;7.47;;
78985;SDS011;68384;55.750;48.746;2023-04-10T00:09:36;14.10;;;7.15;;
78985;SDS011;68384;55.750;48.746;2023-04-10T00:10:39;15.18;;;7.57;;
78985;SDS011;68384;55.750;48.746;2023-04-10T00:11:43;10.80;;;7.10;;
78985;SDS011;68384;55.750;48.746;2023-04-10T00:12:46;11.18;;;7.07;;
78985;SDS011;68384;55.750;48.746;2023-04-10T00:13:49;11.05;;;6.97;;
78985;SDS011;68384;55.750;48.746;2023-04-10T00:14:52;19.80;;;9.98;;
78985;SDS011;68384;55.750;48.746;2023-04-10T00:16:59;12.45;;;7.32;;
78985;SDS011;68384;55.750;48.746;2023-04-10T00:18:04;15.13;;;7.22;;
78985;SDS011;68384;55.750;48.746;2023-04-10T00:19:07;14.05;;;7.35;;
78985;SDS011;68384;55.750;48.746;2023-04-10T00:20:11;11.38;;;7.20;;
78985;SDS011;68384;55.750;48.746;2023-04-10T00:21:13;16.38;;;7.82;;
78985;SDS011;68384;55.750;48.746;2023-04-10T00:22:18;17.90;;;7.82;;
78985;SDS011;68384;55.750;48.746;2023-04-10T00:23:20;12.80;;;6.93;;
78985;SDS011;68384;55.750;48.746;2023-04-10T00:24:25;13.23;;;7.28;;
78985;SDS011;68384;55.750;48.746;2023-04-10T00:25:27;12.77;;;7.13;;
78985;SDS011;68384;55.750;48.746;2023-04-10T00:26:31;15.65;;;7.13;;
78985;SDS011;68384;55.750;48.746;2023-04-10T00:27:34;12.35;;;7.20;;
78985;SDS011;68384;55.750;48.746;2023-04-10T00:28:37;11.50;;;6.95;;
78985;SDS011;68384;55.750;48.746;2023-04-10T00:29:40;16.52;;;7.22;;
78985;SDS011;68384;55.750;48.746;2023-04-10T00:30:43;12.93;;;6.88;;
78985;SDS011;68384;55.750;48.746;2023-04-10T00:31:46;11.65;;;6.38;;
78985;SDS011;68384;55.750;48.746;2023-04-10T00:32:50;13.55;;;7.40;;
78985;SDS011;68384;55.750;48.746;2023-04-10T00:33:54;13.25;;;6.38;;
78985;SDS011;68384;55.750;48.746;2023-04-10T00:34:58;13.70;;;6.20;;
78985;SDS011;68384;55.750;48.746;2023-04-10T00:36:01;14.50;;;7.55;;
78985;SDS011;68384;55.750;48.746;2023-04-10T00:37:05;11.15;;;6.57;;
78985;SDS011;68384;55.750;48.746;2023-04-10T00:38:07;16.73;;;7.65;;
78985;SDS011;68384;55.750;48.746;2023-04-10T00:39:12;11.02;;;7.03;;
78985;SDS011;68384;55.750;48.746;2023-04-10T00:40:14;14.10;;;6.68;;
78985;SDS011;68384;55.750;48.746;2023-04-10T00:41:18;11.35;;;6.65;;
78985;SDS011;68384;55.750;48.746;2023-04-10T00:42:21;12.57;;;7.00;;
78985;SDS011;68384;55.750;48.746;2023-04-10T00:43:24;10.52;;;6.57;;
78985;SDS011;68384;55.750;48.746;2023-04-10T00:44:27;10.60;;;6.38;;
78985;SDS011;68384;55.750;48.746;2023-04-10T00:45:31;10.93;;;6.32;;
78985;SDS011;68384;55.750;48.746;2023-04-10T00:46:35;14.40;;;6.85;;
78985;SDS011;68384;55.750;48.746;2023-04-10T00:47:40;12.85;;;6.88;;
78985;SDS011;68384;55.750;48.746;2023-04-10T00:48:42;13.75;;;6.88;;
78985;SDS011;68384;55.750;48.746;2023-04-10T00:50:50;11.32;;;6.47;;
78985;SDS011;68384;55.750;48.746;2023-04-10T00:51:54;12.45;;;6.80;;
78985;SDS011;68384;55.750;48.746;2023-04-10T00:52:58;15.48;;;7.18;;
78985;SDS011;68384;55.750;48.746;2023-04-10T00:55:05;15.60;;;6.85;;
78985;SDS011;68384;55.750;48.746;2023-04-10T00:56:10;14.10;;;6.93;;
78985;SDS011;68384;55.750;48.746;2023-04-10T00:57:13;12.32;;;6.78;;
78985;SDS011;68384;55.750;48.746;2023-04-10T00:58:16;17.23;;;7.68;;
78985;SDS011;68384;55.750;48.746;2023-04-10T00:59:19;13.98;;;7.55;;
78985;SDS011;68384;55.750;48.746;2023-04-10T01:00:23;15.75;;;7.53;;
78985;SDS011;68384;55.750;48.746;2023-04-10T01:01:27;16.02;;;7.60;;
78985;SDS011;68384;55.750;48.746;2023-04-10T01:02:29;18.23;;;7.88;;
78985;SDS011;68384;55.750;48.746;2023-04-10T01:03:34;12.73;;;7.05;;
78985;SDS011;68384;55.750;48.746;2023-04-10T01:05:43;16.17;;;7.93;;
78985;SDS011;68384;55.750;48.746;2023-04-10T01:06:56;17.30;;;8.00;;
78985;SDS011;68384;55.750;48.746;2023-04-10T01:08:04;13.18;;;8.07;;
78985;SDS011;68384;55.750;48.746;2023-04-10T01:09:14;14.65;;;7.43;;
78985;SDS011;68384;55.750;48.746;2023-04-10T01:10:25;17.50;;;7.90;;
78985;SDS011;68384;55.750;48.746;2023-04-10T01:11:38;14.35;;;8.07;;
78985;SDS011;68384;55.750;48.746;2023-04-10T01:12:53;18.33;;;8.15;;
78985;SDS011;68384;55.750;48.746;2023-04-10T01:14:13;14.93;;;7.13;;
78985;SDS011;68384;55.750;48.746;2023-04-10T01:15:22;15.82;;;8.20;;
78985;SDS011;68384;55.750;48.746;2023-04-10T01:16:29;15.82;;;8.45;;
78985;SDS011;68384;55.750;48.746;2023-04-10T01:17:38;16.42;;;8.05;;
78985;SDS011;68384;55.750;48.746;2023-04-10T01:18:45;14.77;;;8.40;;
78985;SDS011;68384;55.750;48.746;2023-04-10T01:22:09;10.63;;;6.80;;
78985;SDS011;68384;55.750;48.746;2023-04-10T01:23:22;12.30;;;7.25;;
78985;SDS011;68384;55.750;48.746;2023-04-10T01:24:49;11.35;;;6.68;;
78985;SDS011;68384;55.750;48.746;2023-04-10T01:26:04;13.13;;;7.18;;
78985;SDS011;68384;55.750;48.746;2023-04-10T01:27:11;14.60;;;7.65;;
78985;SDS011;68384;55.750;48.746;2023-04-10T01:29:53;15.82;;;8.30;;
78985;SDS011;68384;55.750;48.746;2023-04-10T01:30:59;12.88;;;8.23;;
78985;SDS011;68384;55.750;48.746;2023-04-10T01:32:04;17.05;;;8.10;;
78985;SDS011;68384;55.750;48.746;2023-04-10T01:33:12;13.68;;;8.05;;
78985;SDS011;68384;55.750;48.746;2023-04-10T01:34:19;17.73;;;9.13;;
78985;SDS011;68384;55.750;48.746;2023-04-10T01:35:26;13.90;;;7.38;;
78985;SDS011;68384;55.750;48.746;2023-04-10T01:36:31;13.93;;;7.50;;
78985;SDS011;68384;55.750;48.746;2023-04-10T01:37:39;14.38;;;6.95;;
78985;SDS011;68384;55.750;48.746;2023-04-10T01:38:44;15.70;;;7.38;;
78985;SDS011;68384;55.750;48.746;2023-04-10T01:39:50;14.15;;;7.07;;
78985;SDS011;68384;55.750;48.746;2023-04-10T01:40:59;11.80;;;7.95;;
78985;SDS011;68384;55.750;48.746;2023-04-10T01:42:04;11.27;;;7.57;;
78985;SDS011;68384;55.750;48.746;2023-04-10T01:43:08;16.25;;;8.20;;
78985;SDS011;68384;55.750;48.746;2023-04-10T01:44:15;13.60;;;7.13;;
78985;SDS011;68384;55.750;48.746;2023-04-10T01:45:22;13.43;;;7.25;;
78985;SDS011;68384;55.750;48.746;2023-04-10T01:46:29;16.48;;;7.40;;
78985;SDS011;68384;55.750;48.746;2023-04-10T01:47:33;15.63;;;8.35;;
78985;SDS011;68384;55.750;48.746;2023-04-10T01:48:38;14.02;;;7.82;;
78985;SDS011;68384;55.750;48.746;2023-04-10T01:49:41;16.23;;;7.93;;
78985;SDS011;68384;55.750;48.746;2023-04-10T01:50:48;15.27;;;7.28;;
78985;SDS011;68384;55.750;48.746;2023-04-10T01:51:52;15.85;;;8.10;;
78985;SDS011;68384;55.750;48.746;2023-04-10T01:52:59;13.13;;;7.90;;
78985;SDS011;68384;55.750;48.746;2023-04-10T01:54:04;17.75;;;7.85;;
78985;SDS011;68384;55.750;48.746;2023-04-10T01:56:11;13.98;;;7.18;;
78985;SDS011;68384;55.750;48.746;2023-04-10T01:57:15;13.38;;;8.52;;
78985;SDS011;68384;55.750;48.746;2023-04-10T01:58:18;13.00;;;7.18;;
78985;SDS011;68384;55.750;48.746;2023-04-10T01:59:24;14.45;;;7.53;;
78985;SDS011;68384;55.750;48.746;2023-04-10T02:00:27;15.57;;;7.07;;
78985;SDS011;68384;55.750;48.746;2023-04-10T02:01:31;15.65;;;7.85;;
78985;SDS011;68384;55.750;48.746;2023-04-10T02:02:34;13.45;;;6.57;;
78985;SDS011;68384;55.750;48.746;2023-04-10T02:03:38;13.98;;;7.68;;
78985;SDS011;68384;55.750;48.746;2023-04-10T02:04:41;15.65;;;7.32;;
78985;SDS011;68384;55.750;48.746;2023-04-10T02:05:50;14.60;;;7.72;;
78985;SDS011;68384;55.750;48.746;2023-04-10T02:07:00;13.93;;;7.75;;
78985;SDS011;68384;55.750;48.746;2023-04-10T02:08:07;12.93;;;6.97;;
78985;SDS011;68384;55.750;48.746;2023-04-10T02:09:18;15.70;;;7.53;;
78985;SDS011;68384;55.750;48.746;2023-04-10T02:10:27;15.25;;;7.85;;
78985;SDS011;68384;55.750;48.746;2023-04-10T02:11:36;13.95;;;7.10;;
78985;SDS011;68384;55.750;48.746;2023-04-10T02:12:45;13.63;;;8.15;;
78985;SDS011;68384;55.750;48.746;2023-04-10T02:13:54;17.67;;;7.47;;
78985;SDS011;68384;55.750;48.746;2023-04-10T02:15:25;14.68;;;8.32;;
78985;SDS011;68384;55.750;48.746;2023-04-10T02:16:33;13.88;;;8.20;;
78985;SDS011;68384;55.750;48.746;2023-04-10T02:17:38;13.52;;;7.15;;
78985;SDS011;68384;55.750;48.746;2023-04-10T02:18:43;14.90;;;7.60;;
78985;SDS011;68384;55.750;48.746;2023-04-10T02:19:48;12.75;;;7.25;;
78985;SDS011;68384;55.750;48.746;2023-04-10T02:20:55;12.05;;;7.05;;
78985;SDS011;68384;55.750;48.746;2023-04-10T02:21:57;12.68;;;7.00;;
78985;SDS011;68384;55.750;48.746;2023-04-10T02:23:02;13.07;;;7.28;;
78985;SDS011;68384;55.750;48.746;2023-04-10T02:24:07;13.85;;;7.47;;
78985;SDS011;68384;55.750;48.746;2023-04-10T02:25:11;13.65;;;7.38;;
78985;SDS011;68384;55.750;48.746;2023-04-10T02:26:13;16.13;;;7.28;;
78985;SDS011;68384;55.750;48.746;2023-04-10T02:27:25;15.70;;;8.88;;
78985;SDS011;68384;55.750;48.746;2023-04-10T02:28:28;14.43;;;7.78;;
78985;SDS011;68384;55.750;48.746;2023-04-10T02:30:36;12.30;;;7.38;;
78985;SDS011;68384;55.750;48.746;2023-04-10T02:31:40;14.43;;;8.18;;
78985;SDS011;68384;55.750;48.746;2023-04-10T02:32:43;12.45;;;7.38;;
78985;SDS011;68384;55.750;48.746;2023-04-10T02:33:47;20.95;;;8.88;;
78985;SDS011;68384;55.750;48.746;2023-04-10T02:34:49;14.10;;;6.97;;
78985;SDS011;68384;55.750;48.746;2023-04-10T02:36:55;14.77;;;7.50;;
78985;SDS011;68384;55.750;48.746;2023-04-10T02:37:59;16.42;;;8.00;;
78985;SDS011;68384;55.750;48.746;2023-04-10T02:39:02;14.70;;;7.97;;
78985;SDS011;68384;55.750;48.746;2023-04-10T02:41:08;13.18;;;7.53;;
78985;SDS011;68384;55.750;48.746;2023-04-10T02:42:12;15.32;;;7.53;;
78985;SDS011;68384;55.750;48.746;2023-04-10T02:43:15;14.27;;;7.47;;
78985;SDS011;68384;55.750;48.746;2023-04-10T02:44:18;14.98;;;8.00;;
78985;SDS011;68384;55.750;48.746;2023-04-10T02:45:21;13.90;;;7.45;;
78985;SDS011;68384;55.750;48.746;2023-04-10T02:47:28;13.52;;;7.63;;
78985;SDS011;68384;55.750;48.746;2023-04-10T02:48:32;15.85;;;7.85;;
78985;SDS011;68384;55.750;48.746;2023-04-10T02:49:35;14.63;;;8.25;;
78985;SDS011;68384;55.750;48.746;2023-04-10T02:50:39;13.30;;;7.90;;
78985;SDS011;68384;55.750;48.746;2023-04-10T02:51:47;17.10;;;8.32;;
78985;SDS011;68384;55.750;48.746;2023-04-10T02:52:51;13.85;;;8.30;;
78985;SDS011;68384;55.750;48.746;2023-04-10T02:53:53;13.73;;;7.88;;
78985;SDS011;68384;55.750;48.746;2023-04-10T02:55:59;12.68;;;6.85;;
78985;SDS011;68384;55.750;48.746;2023-04-10T02:57:03;23.85;;;8.15;;
78985;SDS011;68384;55.750;48.746;2023-04-10T02:58:06;14.55;;;7.45;;
78985;SDS011;68384;55.750;48.746;2023-04-10T03:00:12;12.45;;;7.15;;
78985;SDS011;68384;55.750;48.746;2023-04-10T03:01:16;16.08;;;7.07;;
78985;SDS011;68384;55.750;48.746;2023-04-10T03:02:20;15.80;;;7.47;;
78985;SDS011;68384;55.750;48.746;2023-04-10T03:03:24;12.40;;;7.35;;
78985;SDS011;68384;55.750;48.746;2023-04-10T03:04:27;13.65;;;7.22;;
78985;SDS011;68384;55.750;48.746;2023-04-10T03:05:33;11.88;;;6.18;;
78985;SDS011;68384;55.750;48.746;2023-04-10T03:06:37;11.73;;;6.65;;
78985;SDS011;68384;55.750;48.746;2023-04-10T03:08:42;12.50;;;7.28;;
78985;SDS011;68384;55.750;48.746;2023-04-10T03:09:46;17.35;;;7.40;;
78985;SDS011;68384;55.750;48.746;2023-04-10T03:10:49;14.35;;;6.95;;
78985;SDS011;68384;55.750;48.746;2023-04-10T03:13:58;11.50;;;7.25;;
78985;SDS011;68384;55.750;48.746;2023-04-10T03:15:01;14.65;;;6.90;;
78985;SDS011;68384;55.750;48.746;2023-04-10T03:17:08;12.40;;;6.78;;
78985;SDS011;68384;55.750;48.746;2023-04-10T03:18:14;13.50;;;7.40;;
78985;SDS011;68384;55.750;48.746;2023-04-10T03:19:17;12.55;;;7.28;;
78985;SDS011;68384;55.750;48.746;2023-04-10T03:20:20;11.93;;;6.63;;
78985;SDS011;68384;55.750;48.746;2023-04-10T03:21:23;18.25;;;8.07;;
78985;SDS011;68384;55.750;48.746;2023-04-10T03:22:28;10.88;;;6.78;;
78985;SDS011;68384;55.750;48.746;2023-04-10T03:23:32;11.50;;;6.80;;
78985;SDS011;68384;55.750;48.746;2023-04-10T03:25:38;13.35;;;7.03;;
78985;SDS011;68384;55.750;48.746;2023-04-10T03:26:43;12.50;;;6.30;;
78985;SDS011;68384;55.750;48.746;2023-04-10T03:27:46;12.52;;;7.28;;
78985;SDS011;68384;55.750;48.746;2023-04-10T03:28:50;11.10;;;6.45;;
78985;SDS011;68384;55.750;48.746;2023-04-10T03:29:53;10.85;;;6.25;;
78985;SDS011;68384;55.750;48.746;2023-04-10T03:30:57;11.77;;;6.40;;
78985;SDS011;68384;55.750;48.746;2023-04-10T03:31:59;10.20;;;5.63;;
78985;SDS011;68384;55.750;48.746;2023-04-10T03:34:07;12.52;;;5.82;;
78985;SDS011;68384;55.750;48.746;2023-04-10T03:35:10;10.77;;;4.75;;
78985;SDS011;68384;55.750;48.746;2023-04-10T03:36:13;12.52;;;6.18;;
78985;SDS011;68384;55.750;48.746;2023-04-10T03:37:17;13.35;;;6.75;;
78985;SDS011;68384;55.750;48.746;2023-04-10T03:38:20;11.95;;;5.88;;
78985;SDS011;68384;55.750;48.746;2023-04-10T03:40:26;10.30;;;5.40;;
78985;SDS011;68384;55.750;48.746;2023-04-10T03:41:30;10.73;;;6.10;;
78985;SDS011;68384;55.750;48.746;2023-04-10T03:42:32;11.15;;;5.70;;
78985;SDS011;68384;55.750;48.746;2023-04-10T03:43:36;10.88;;;6.32;;
78985;SDS011;68384;55.750;48.746;2023-04-10T03:44:39;11.85;;;5.65;;
78985;SDS011;68384;55.750;48.746;2023-04-10T03:46:44;16.25;;;5.65;;
78985;SDS011;68384;55.750;48.746;2023-04-10T03:48:50;12.82;;;5.60;;
78985;SDS011;68384;55.750;48.746;2023-04-10T03:49:56;11.25;;;4.97;;
78985;SDS011;68384;55.750;48.746;2023-04-10T03:50:59;10.40;;;5.30;;
78985;SDS011;68384;55.750;48.746;2023-04-10T03:52:04;11.90;;;5.15;;
78985;SDS011;68384;55.750;48.746;2023-04-10T03:53:06;8.70;;;4.13;;
78985;SDS011;68384;55.750;48.746;2023-04-10T03:55:12;8.45;;;4.65;;
78985;SDS011;68384;55.750;48.746;2023-04-10T03:56:19;8.27;;;4.45;;
78985;SDS011;68384;55.750;48.746;2023-04-10T03:57:23;6.82;;;4.53;;
78985;SDS011;68384;55.750;48.746;2023-04-10T03:58:26;7.10;;;4.05;;
78985;SDS011;68384;55.750;48.746;2023-04-10T03:59:29;7.53;;;4.53;;
78985;SDS011;68384;55.750;48.746;2023-04-10T04:01:41;5.78;;;3.97;;
78985;SDS011;68384;55.750;48.746;2023-04-10T04:02:46;9.13;;;4.60;;
78985;SDS011;68384;55.750;48.746;2023-04-10T04:03:48;9.85;;;3.90;;
78985;SDS011;68384;55.750;48.746;2023-04-10T04:04:53;9.63;;;4.45;;
78985;SDS011;68384;55.750;48.746;2023-04-10T04:05:57;7.32;;;3.80;;
78985;SDS011;68384;55.750;48.746;2023-04-10T04:07:01;8.43;;;3.58;;
78985;SDS011;68384;55.750;48.746;2023-04-10T04:08:04;7.95;;;3.53;;
78985;SDS011;68384;55.750;48.746;2023-04-10T04:09:07;8.75;;;3.70;;
78985;SDS011;68384;55.750;48.746;2023-04-10T04:10:10;9.60;;;4.10;;
78985;SDS011;68384;55.750;48.746;2023-04-10T04:11:14;7.38;;;4.50;;
78985;SDS011;68384;55.750;48.746;2023-04-10T04:12:16;6.20;;;4.00;;
78985;SDS011;68384;55.750;48.746;2023-04-10T04:13:20;8.93;;;3.60;;
78985;SDS011;68384;55.750;48.746;2023-04-10T04:14:23;6.68;;;3.67;;
78985;SDS011;68384;55.750;48.746;2023-04-10T04:15:26;7.47;;;3.70;;
78985;SDS011;68384;55.750;48.746;2023-04-10T04:16:29;6.47;;;3.80;;
78985;SDS011;68384;55.750;48.746;2023-04-10T04:17:33;7.35;;;3.70;;
78985;SDS011;68384;55.750;48.746;2023-04-10T04:18:36;8.07;;;3.38;;
78985;SDS011;68384;55.750;48.746;2023-04-10T04:19:40;6.50;;;3.58;;
78985;SDS011;68384;55.750;48.746;2023-04-10T04:20:43;4.30;;;3.58;;
78985;SDS011;68384;55.750;48.746;2023-04-10T04:22:50;6.68;;;4.05;;
78985;SDS011;68384;55.750;48.746;2023-04-10T04:23:54;7.38;;;3.30;;
78985;SDS011;68384;55.750;48.746;2023-04-10T04:24:56;8.65;;;3.50;;
78985;SDS011;68384;55.750;48.746;2023-04-10T04:27:02;6.93;;;3.50;;
78985;SDS011;68384;55.750;48.746;2023-04-10T04:28:06;7.57;;;3.45;;
78985;SDS011;68384;55.750;48.746;2023-04-10T04:29:10;8.82;;;4.50;;
78985;SDS011;68384;55.750;48.746;2023-04-10T04:31:16;8.40;;;3.75;;
78985;SDS011;68384;55.750;48.746;2023-04-10T04:32:20;5.68;;;3.72;;
78985;SDS011;68384;55.750;48.746;2023-04-10T04:33:23;8.23;;;3.67;;
78985;SDS011;68384;55.750;48.746;2023-04-10T04:35:28;12.93;;;4.10;;
78985;SDS011;68384;55.750;48.746;2023-04-10T04:36:32;17.38;;;5.22;;
78985;SDS011;68384;55.750;48.746;2023-04-10T04:37:36;8.52;;;3.78;;
78985;SDS011;68384;55.750;48.746;2023-04-10T04:38:40;7.38;;;3.55;;
78985;SDS011;68384;55.750;48.746;2023-04-10T04:39:43;10.40;;;3.85;;
78985;SDS011;68384;55.750;48.746;2023-04-10T04:40:46;7.38;;;4.20;;
78985;SDS011;68384;55.750;48.746;2023-04-10T04:41:49;8.13;;;3.75;;
78985;SDS011;68384;55.750;48.746;2023-04-10T04:42:53;8.40;;;4.53;;
78985;SDS011;68384;55.750;48.746;2023-04-10T04:43:55;9.02;;;4.70;;
78985;SDS011;68384;55.750;48.746;2023-04-10T04:46:01;8.35;;;4.72;;
78985;SDS011;68384;55.750;48.746;2023-04-10T04:47:05;10.07;;;4.25;;
78985;SDS011;68384;55.750;48.746;2023-04-10T04:48:08;10.40;;;4.93;;
78985;SDS011;68384;55.750;48.746;2023-04-10T04:49:11;6.45;;;4.10;;
78985;SDS011;68384;55.750;48.746;2023-04-10T04:50:14;7.80;;;4.63;;
78985;SDS011;68384;55.750;48.746;2023-04-10T04:52:23;7.85;;;4.05;;
78985;SDS011;68384;55.750;48.746;2023-04-10T04:53:29;7.95;;;3.90;;
78985;SDS011;68384;55.750;48.746;2023-04-10T04:54:32;7.95;;;4.03;;
78985;SDS011;68384;55.750;48.746;2023-04-10T04:56:38;7.25;;;3.30;;
78985;SDS011;68384;55.750;48.746;2023-04-10T04:58:44;7.47;;;3.22;;
78985;SDS011;68384;55.750;48.746;2023-04-10T04:59:48;7.18;;;3.75;;
78985;SDS011;68384;55.750;48.746;2023-04-10T05:00:51;8.05;;;4.30;;
78985;SDS011;68384;55.750;48.746;2023-04-10T05:01:55;9.20;;;4.35;;
78985;SDS011;68384;55.750;48.746;2023-04-10T05:02:58;7.85;;;4.43;;
78985;SDS011;68384;55.750;48.746;2023-04-10T05:04:02;7.07;;;3.83;;
78985;SDS011;68384;55.750;48.746;2023-04-10T05:05:07;10.00;;;4.32;;
78985;SDS011;68384;55.750;48.746;2023-04-10T05:06:09;5.97;;;4.28;;
78985;SDS011;68384;55.750;48.746;2023-04-10T05:08:16;8.73;;;3.75;;
78985;SDS011;68384;55.750;48.746;2023-04-10T05:09:22;8.60;;;4.22;;
78985;SDS011;68384;55.750;48.746;2023-04-10T05:10:25;7.50;;;4.03;;
78985;SDS011;68384;55.750;48.746;2023-04-10T05:12:31;8.38;;;3.67;;
78985;SDS011;68384;55.750;48.746;2023-04-10T05:14:37;6.80;;;3.78;;
78985;SDS011;68384;55.750;48.746;2023-04-10T05:16:43;7.38;;;3.53;;
78985;SDS011;68384;55.750;48.746;2023-04-10T05:17:46;8.30;;;3.67;;
78985;SDS011;68384;55.750;48.746;2023-04-10T05:18:54;5.90;;;3.22;;
78985;SDS011;68384;55.750;48.746;2023-04-10T05:19:58;7.20;;;2.80;;
78985;SDS011;68384;55.750;48.746;2023-04-10T05:21:01;5.57;;;3.70;;
78985;SDS011;68384;55.750;48.746;2023-04-10T05:22:08;6.68;;;3.85;;
78985;SDS011;68384;55.750;48.746;2023-04-10T05:23:11;8.32;;;3.70;;
78985;SDS011;68384;55.750;48.746;2023-04-10T05:24:14;7.72;;;4.00;;
78985;SDS011;68384;55.750;48.746;2023-04-10T05:26:21;10.18;;;4.00;;
78985;SDS011;68384;55.750;48.746;2023-04-10T05:27:25;7.22;;;3.65;;
78985;SDS011;68384;55.750;48.746;2023-04-10T05:28:28;6.15;;;3.50;;
78985;SDS011;68384;55.750;48.746;2023-04-10T05:29:32;5.28;;;3.40;;
78985;SDS011;68384;55.750;48.746;2023-04-10T05:30:35;6.47;;;3.65;;
78985;SDS011;68384;55.750;48.746;2023-04-10T05:31:39;8.95;;;3.70;;
78985;SDS011;68384;55.750;48.746;2023-04-10T05:32:41;14.05;;;4.30;;
78985;SDS011;68384;55.750;48.746;2023-04-10T05:33:46;8.60;;;3.70;;
78985;SDS011;68384;55.750;48.746;2023-04-10T05:34:49;5.60;;;3.40;;
78985;SDS011;68384;55.750;48.746;2023-04-10T05:36:55;8.25;;;3.80;;
78985;SDS011;68384;55.750;48.746;2023-04-10T05:37:59;7.65;;;4.18;;
78985;SDS011;68384;55.750;48.746;2023-04-10T05:39:02;9.02;;;3.55;;
78985;SDS011;68384;55.750;48.746;2023-04-10T05:40:07;9.35;;;4.38;;
78985;SDS011;68384;55.750;48.746;2023-04-10T05:41:11;9.65;;;4.18;;
78985;SDS011;68384;55.750;48.746;2023-04-10T05:42:15;6.15;;;4.03;;
78985;SDS011;68384;55.750;48.746;2023-04-10T05:43:18;6.80;;;3.85;;
78985;SDS011;68384;55.750;48.746;2023-04-10T05:44:22;7.53;;;4.15;;
78985;SDS011;68384;55.750;48.746;2023-04-10T05:45:25;9.40;;;3.97;;
78985;SDS011;68384;55.750;48.746;2023-04-10T05:46:29;6.85;;;4.18;;
78985;SDS011;68384;55.750;48.746;2023-04-10T05:47:32;8.10;;;4.05;;
78985;SDS011;68384;55.750;48.746;2023-04-10T05:48:36;6.80;;;4.22;;
78985;SDS011;68384;55.750;48.746;2023-04-10T05:49:38;8.70;;;3.88;;
78985;SDS011;68384;55.750;48.746;2023-04-10T05:51:44;9.90;;;3.78;;
78985;SDS011;68384;55.750;48.746;2023-04-10T05:52:50;10.00;;;4.60;;
78985;SDS011;68384;55.750;48.746;2023-04-10T05:53:53;8.40;;;3.60;;
78985;SDS011;68384;55.750;48.746;2023-04-10T05:55:59;5.60;;;3.70;;
78985;SDS011;68384;55.750;48.746;2023-04-10T05:57:04;5.22;;;3.63;;
78985;SDS011;68384;55.750;48.746;2023-04-10T05:58:07;8.20;;;3.65;;
78985;SDS011;68384;55.750;48.746;2023-04-10T06:00:14;5.95;;;3.22;;
78985;SDS011;68384;55.750;48.746;2023-04-10T06:01:18;6.60;;;4.10;;
78985;SDS011;68384;55.750;48.746;2023-04-10T06:02:21;6.93;;;3.72;;
78985;SDS011;68384;55.750;48.746;2023-04-10T06:03:25;8.80;;;3.95;;
78985;SDS011;68384;55.750;48.746;2023-04-10T06:04:28;7.88;;;3.63;;
78985;SDS011;68384;55.750;48.746;2023-04-10T06:05:32;7.22;;;3.60;;
78985;SDS011;68384;55.750;48.746;2023-04-10T06:06:35;8.00;;;3.70;;
78985;SDS011;68384;55.750;48.746;2023-04-10T06:07:39;6.43;;;3.40;;
78985;SDS011;68384;55.750;48.746;2023-04-10T06:08:41;5.35;;;3.20;;
78985;SDS011;68384;55.750;48.746;2023-04-10T06:09:45;6.95;;;4.05;;
78985;SDS011;68384;55.750;48.746;2023-04-10T06:10:48;9.30;;;4.32;;
78985;SDS011;68384;55.750;48.746;2023-04-10T06:12:55;6.53;;;4.15;;
78985;SDS011;68384;55.750;48.746;2023-04-10T06:13:59;8.18;;;3.65;;
78985;SDS011;68384;55.750;48.746;2023-04-10T06:15:02;11.98;;;4.30;;
78985;SDS011;68384;55.750;48.746;2023-04-10T06:16:06;6.38;;;3.63;;
78985;SDS011;68384;55.750;48.746;2023-04-10T06:17:11;10.70;;;4.95;;
78985;SDS011;68384;55.750;48.746;2023-04-10T06:18:14;8.63;;;4.10;;
78985;SDS011;68384;55.750;48.746;2023-04-10T06:20:19;6.93;;;3.42;;
78985;SDS011;68384;55.750;48.746;2023-04-10T06:21:24;6.72;;;3.75;;
78985;SDS011;68384;55.750;48.746;2023-04-10T06:22:27;6.28;;;3.33;;
78985;SDS011;68384;55.750;48.746;2023-04-10T06:24:32;6.13;;;3.30;;
78985;SDS011;68384;55.750;48.746;2023-04-10T06:25:36;9.15;;;4.57;;
78985;SDS011;68384;55.750;48.746;2023-04-10T06:26:39;10.18;;;4.30;;
78985;SDS011;68384;55.750;48.746;2023-04-10T06:28:46;7.72;;;4.03;;
78985;SDS011;68384;55.750;48.746;2023-04-10T06:29:50;8.80;;;3.58;;
78985;SDS011;68384;55.750;48.746;2023-04-10T06:30:54;7.15;;;3.65;;
78985;SDS011;68384;55.750;48.746;2023-04-10T06:31:57;9.35;;;4.10;;
78985;SDS011;68384;55.750;48.746;2023-04-10T06:33:01;9.65;;;4.28;;
78985;SDS011;68384;55.750;48.746;2023-04-10T06:34:04;9.88;;;3.90;;
78985;SDS011;68384;55.750;48.746;2023-04-10T06:36:11;9.00;;;4.45;;
78985;SDS011;68384;55.750;48.746;2023-04-10T06:37:15;5.85;;;3.42;;
78985;SDS011;68384;55.750;48.746;2023-04-10T06:38:17;7.25;;;3.30;;
78985;SDS011;68384;55.750;48.746;2023-04-10T06:40:23;6.28;;;3.60;;
78985;SDS011;68384;55.750;48.746;2023-04-10T06:41:29;5.50;;;3.25;;
78985;SDS011;68384;55.750;48.746;2023-04-10T06:42:31;4.95;;;3.30;;
78985;SDS011;68384;55.750;48.746;2023-04-10T06:43:35;7.95;;;3.22;;
78985;SDS011;68384;55.750;48.746;2023-04-10T06:44:42;5.82;;;2.83;;
78985;SDS011;68384;55.750;48.746;2023-04-10T06:46:04;9.60;;;4.07;;
78985;SDS011;68384;55.750;48.746;2023-04-10T06:47:08;7.22;;;3.88;;
78985;SDS011;68384;55.750;48.746;2023-04-10T06:48:11;5.82;;;3.17;;
78985;SDS011;68384;55.750;48.746;2023-04-10T06:49:15;6.68;;;3.50;;
78985;SDS011;68384;55.750;48.746;2023-04-10T06:50:18;8.43;;;4.20;;
78985;SDS011;68384;55.750;48.746;2023-04-10T06:52:24;5.80;;;2.65;;
78985;SDS011;68384;55.750;48.746;2023-04-10T06:53:28;8.75;;;3.25;;
78985;SDS011;68384;55.750;48.746;2023-04-10T06:54:30;7.00;;;3.00;;
78985;SDS011;68384;55.750;48.746;2023-04-10T06:55:34;7.93;;;2.72;;
78985;SDS011;68384;55.750;48.746;2023-04-10T06:56:38;6.40;;;3.17;;
78985;SDS011;68384;55.750;48.746;2023-04-10T06:57:42;10.95;;;3.13;;
78985;SDS011;68384;55.750;48.746;2023-04-10T06:58:44;5.82;;;3.00;;
78985;SDS011;68384;55.750;48.746;2023-04-10T06:59:49;8.25;;;2.83;;
78985;SDS011;68384;55.750;48.746;2023-04-10T07:00:53;8.02;;;3.20;;
78985;SDS011;68384;55.750;48.746;2023-04-10T07:01:57;6.18;;;3.20;;
78985;SDS011;68384;55.750;48.746;2023-04-10T07:02:59;7.13;;;3.15;;
78985;SDS011;68384;55.750;48.746;2023-04-10T07:04:03;8.38;;;3.03;;
78985;SDS011;68384;55.750;48.746;2023-04-10T07:05:06;4.43;;;2.72;;
78985;SDS011;68384;55.750;48.746;2023-04-10T07:06:10;7.63;;;3.88;;
78985;SDS011;68384;55.750;48.746;2023-04-10T07:07:13;6.35;;;2.85;;
78985;SDS011;68384;55.750;48.746;2023-04-10T07:08:16;6.07;;;3.53;;
78985;SDS011;68384;55.750;48.746;2023-04-10T07:09:19;4.80;;;2.72;;
78985;SDS011;68384;55.750;48.746;2023-04-10T07:10:23;9.88;;;2.67;;